ARCT2: Red River, ARthur City

                                SHEF ID:       ARCT2     Red River at Arthur City, TX
STATION TYPE: Stream Gauge
Regulating: Stage = 27.00, Flow = 84609

PRECIP ELEVATION STAGE STAGE(2) RIV-FLOW BAT-LOAD
in ft ft ft cfs volt
Ccp-Rev Ccp-Rev Ccp-Rev Ccp-Rev Ccp-Rev Ccp-Rev
(America/Chicago)
04/25 00:00 0.00 ---- 7.21 ---- 5268 12.57
04/25 01:00 0.00 ---- 7.13 ---- 5126 12.49
04/25 02:00 0.00 ---- 7.06 ---- 5003 12.49
04/25 03:00 0.00 ---- 7.03 ---- 4951 12.49
04/25 04:00 0.00 ---- 6.95 ---- 4813 12.41
04/25 05:00 0.00 ---- 6.95 ---- 4813 ----
04/25 06:00 0.00 ---- 7.02 ---- 4934 12.41
04/25 07:00 0.00 ---- 7.01 ---- 4916 12.41
04/25 08:00 ---- ---- 6.99 ---- 4882 ----
04/25 09:00 ---- ---- 6.83 ---- 4609 ----
04/25 10:00 0.00 ---- 6.82 ---- 4592 13.60
04/25 11:00 ---- ---- 6.74 ---- 4459 ----
04/25 12:00 ---- ---- 6.67 ---- 4343 ----
04/25 13:00 ---- ---- 6.58 ---- 4197 ----
04/25 14:00 0.00 ---- 6.49 ---- 4051 13.60
04/25 15:00 0.00 ---- 6.42 ---- 3936 ----
04/25 16:00 0.00 ---- 6.33 ---- 3789 13.44
04/25 17:00 0.00 ---- 6.28 ---- 3709 13.44
04/25 18:00 0.00 ---- 6.31 ---- 3757 13.37
04/25 19:00 0.00 ---- 6.33 ---- 3789 13.37
04/25 20:00 0.00 ---- 6.34 ---- 3805 12.97
04/25 21:00 0.00 ---- 6.36 ---- 3838 12.57
04/25 22:00 0.00 ---- 6.32 ---- 3773 ----
04/25 23:00 0.00 ---- 6.42 ---- 3936 12.57
Data processed at Sun 26Apr2026 04:30 GMT

NOTICE: If you are parsing this page

Please convert to using our Data API. Starting early 2026 we will be migrating to: https://water.usace.army.mil with modern pages rendered in JavaScript. When this migration completes you will no longer be able to scrape this page! CWMSDataAPI (CDA)

Timeseries IDs (TSIDs)

TSIDs used from left to right in the data table
ARTH.Precip-Inc.Total.1Hour.1Hour.Ccp-Rev
ARTH.Stage.Inst.1Hour.0.Ccp-Rev
ARTH.Stage-Alt.Inst.1Hour.0.Ccp-Rev
ARTH.Flow.Inst.1Hour.0.Ccp-Rev
ARTH.Volt-Battery Load.Inst.1Hour.0.Ccp-Rev

                            

All information presented herein is the property of the government of the United States of America and may be revised or deleted at any time without prior notice. Dissemination of this information without the expressed written consent of the Public Affairs Office, Tulsa District U.S. Army Corps of Engineers is strictly prohibited. These data are gathered electronically and, as presented, have NOT undergone any form of quality control. These data are NOT guaranteed to be valid or correct.